createdAt,value
2023-01-27T00:01:17.211Z,5.40
2023-01-27T00:03:45.153Z,5.40
2023-01-27T00:06:13.172Z,5.40
2023-01-27T00:08:40.552Z,5.40
2023-01-27T00:11:26.824Z,5.40
2023-01-27T00:13:55.203Z,5.50
2023-01-27T00:16:22.670Z,5.50
2023-01-27T00:18:50.318Z,5.50
2023-01-27T00:21:36.666Z,5.50
2023-01-27T00:24:23.014Z,5.40
2023-01-27T00:26:50.629Z,5.40
2023-01-27T00:29:18.088Z,5.40
2023-01-27T00:32:03.819Z,5.40
2023-01-27T00:34:31.375Z,5.40
2023-01-27T00:36:58.776Z,5.50
2023-01-27T00:39:26.164Z,5.60
2023-01-27T00:41:53.677Z,5.60
2023-01-27T00:44:21.380Z,5.60
2023-01-27T00:46:48.907Z,5.50
2023-01-27T00:49:16.579Z,5.50
2023-01-27T00:51:44.778Z,5.50
2023-01-27T00:54:12.480Z,5.60
2023-01-27T00:56:40.025Z,5.60
2023-01-27T00:59:07.716Z,5.60
2023-01-27T01:01:35.653Z,5.50
2023-01-27T01:04:03.474Z,5.40
2023-01-27T01:06:30.971Z,5.40
2023-01-27T01:08:58.774Z,5.40
2023-01-27T01:11:27.026Z,5.40
2023-01-27T01:13:56.442Z,5.50
2023-01-27T01:16:24.968Z,5.50
2023-01-27T01:18:52.938Z,5.50
2023-01-27T01:21:20.472Z,5.50
2023-01-27T01:23:49.068Z,5.50
2023-01-27T01:26:18.033Z,5.40
2023-01-27T01:28:46.714Z,5.40
2023-01-27T01:31:17.487Z,5.40
2023-01-27T01:33:45.692Z,5.30
2023-01-27T01:36:16.915Z,5.30
2023-01-27T01:38:44.535Z,5.40
2023-01-27T01:41:15.705Z,5.40
2023-01-27T01:43:43.121Z,5.40
2023-01-27T01:46:11.935Z,5.40
2023-01-27T01:48:50.672Z,5.40
2023-01-27T01:51:42.213Z,5.30
2023-01-27T01:54:15.523Z,5.40
2023-01-27T01:56:51.579Z,5.30
2023-01-27T01:59:40.761Z,5.30
2023-01-27T02:02:12.610Z,5.30
2023-01-27T02:04:50.911Z,5.40
2023-01-27T02:07:22.867Z,5.40
2023-01-27T02:09:50.559Z,5.40
2023-01-27T02:12:18.205Z,5.30
2023-01-27T02:14:45.768Z,5.30
2023-01-27T02:17:14.160Z,5.20
2023-01-27T02:19:58.666Z,5.20
2023-01-27T02:22:49.411Z,5.40
2023-01-27T02:25:35.878Z,5.40
2023-01-27T02:28:08.377Z,5.40
2023-01-27T02:30:36.132Z,5.20
2023-01-27T02:33:06.330Z,5.20
2023-01-27T02:36:03.716Z,5.20
2023-01-27T02:38:37.214Z,5.30
2023-01-27T02:41:19.666Z,5.40
2023-01-27T02:43:49.032Z,5.20
2023-01-27T02:46:16.694Z,5.20
2023-01-27T02:48:44.708Z,5.20
2023-01-27T02:51:12.422Z,5.20
2023-01-27T02:53:40.012Z,5.10
2023-01-27T02:56:07.461Z,5.20
2023-01-27T02:58:34.798Z,5.40
2023-01-27T03:01:02.326Z,5.30
2023-01-27T03:03:29.912Z,5.30
2023-01-27T03:05:57.515Z,5.20
2023-01-27T03:08:25.059Z,5.10
2023-01-27T03:10:55.770Z,5.30
2023-01-27T03:13:24.770Z,5.20
2023-01-27T03:16:12.744Z,5.20
2023-01-27T03:18:47.400Z,5.30
2023-01-27T03:21:15.397Z,5.30
2023-01-27T03:23:45.763Z,5.40
2023-01-27T03:26:13.164Z,5.40
2023-01-27T03:28:40.557Z,5.30
2023-01-27T03:31:19.619Z,5.20
2023-01-27T03:33:47.857Z,5.30
2023-01-27T03:36:34.174Z,5.20
2023-01-27T03:39:20.112Z,5.10
2023-01-27T03:42:06.012Z,5.30
2023-01-27T03:44:51.717Z,5.40
2023-01-27T03:47:19.263Z,5.30
2023-01-27T03:49:46.876Z,5.20
2023-01-27T03:52:14.215Z,5.20
2023-01-27T03:54:41.611Z,5.20
2023-01-27T03:57:09.405Z,5.20
2023-01-27T03:59:36.913Z,5.20
2023-01-27T04:02:23.043Z,5.20
2023-01-27T04:05:08.771Z,5.20
2023-01-27T04:07:37.161Z,5.30
2023-01-27T04:10:05.817Z,5.30
2023-01-27T04:12:33.430Z,5.20
2023-01-27T04:15:00.720Z,5.20
2023-01-27T04:17:28.067Z,5.20
2023-01-27T04:19:55.767Z,5.20
2023-01-27T04:22:23.305Z,5.20
2023-01-27T04:24:50.875Z,5.20
2023-01-27T04:27:20.403Z,5.30
2023-01-27T04:29:48.017Z,5.30
2023-01-27T04:32:15.757Z,5.30
2023-01-27T04:34:43.242Z,5.20
2023-01-27T04:37:11.111Z,5.00
2023-01-27T04:39:38.586Z,5.00
2023-01-27T04:42:06.114Z,5.00
2023-01-27T04:44:33.609Z,5.00
2023-01-27T04:47:01.152Z,5.10
2023-01-27T04:49:28.566Z,5.30
2023-01-27T04:51:56.514Z,5.30
2023-01-27T04:54:23.887Z,5.20
2023-01-27T04:56:59.621Z,5.10
2023-01-27T04:59:27.681Z,5.00
2023-01-27T05:01:55.832Z,5.10
2023-01-27T05:04:23.308Z,5.00
2023-01-27T05:06:50.660Z,5.00
2023-01-27T05:09:18.214Z,5.10
2023-01-27T05:11:45.781Z,5.20
2023-01-27T05:14:14.722Z,5.30
2023-01-27T05:16:42.269Z,5.20
2023-01-27T05:19:09.931Z,5.20
2023-01-27T05:21:37.469Z,5.10
2023-01-27T05:24:05.194Z,5.20
2023-01-27T05:26:32.814Z,5.20
2023-01-27T05:29:00.370Z,5.10
2023-01-27T05:31:31.568Z,5.30
2023-01-27T05:34:00.669Z,5.30
2023-01-27T05:36:29.112Z,5.30
2023-01-27T05:38:58.262Z,5.30
2023-01-27T05:41:25.954Z,5.30
2023-01-27T05:43:55.701Z,5.20
2023-01-27T05:46:25.777Z,5.30
2023-01-27T05:48:55.961Z,5.20
2023-01-27T05:51:25.562Z,5.20
2023-01-27T05:53:55.110Z,5.30
2023-01-27T05:56:23.049Z,5.40
2023-01-27T05:58:50.363Z,5.40
2023-01-27T06:01:21.005Z,5.40
2023-01-27T06:03:49.099Z,5.20
2023-01-27T06:06:18.754Z,5.10
2023-01-27T06:08:47.598Z,5.10
2023-01-27T06:11:16.809Z,5.10
2023-01-27T06:13:44.264Z,5.00
2023-01-27T06:16:17.993Z,5.20
2023-01-27T06:18:46.015Z,5.30
2023-01-27T06:21:14.687Z,5.30
2023-01-27T06:23:42.306Z,5.20
2023-01-27T06:26:16.405Z,5.20
2023-01-27T06:28:44.266Z,5.20
2023-01-27T06:31:20.999Z,5.10
2023-01-27T06:33:48.858Z,5.10
2023-01-27T06:36:19.047Z,5.10
2023-01-27T06:38:47.126Z,5.30
2023-01-27T06:41:14.673Z,5.40
2023-01-27T06:43:42.461Z,5.30
2023-01-27T06:46:09.975Z,5.20
2023-01-27T06:48:38.130Z,5.20
2023-01-27T06:51:06.306Z,5.20
2023-01-27T06:53:34.922Z,5.20
2023-01-27T06:56:02.603Z,5.20
2023-01-27T06:58:30.556Z,5.40
2023-01-27T07:00:57.965Z,5.50
2023-01-27T07:03:25.597Z,5.50
2023-01-27T07:05:53.684Z,5.50
2023-01-27T07:08:21.258Z,5.40
2023-01-27T07:10:48.868Z,5.30
2023-01-27T07:13:16.506Z,5.20
2023-01-27T07:15:43.955Z,5.30
2023-01-27T07:18:14.240Z,5.30
2023-01-27T07:20:41.879Z,5.50
2023-01-27T07:23:10.207Z,5.50
2023-01-27T07:25:37.883Z,5.50
2023-01-27T07:28:05.980Z,5.40
2023-01-27T07:30:34.249Z,5.30
2023-01-27T07:33:10.368Z,5.40
2023-01-27T07:35:40.694Z,5.40
2023-01-27T07:38:11.353Z,5.40
2023-01-27T07:40:39.356Z,5.50
2023-01-27T07:43:07.548Z,5.60
2023-01-27T07:45:36.490Z,5.60
2023-01-27T07:48:07.950Z,5.50
2023-01-27T07:50:36.350Z,5.40
2023-01-27T07:53:06.584Z,5.40
2023-01-27T07:55:35.563Z,5.50
2023-01-27T07:58:04.951Z,5.40
2023-01-27T08:00:33.115Z,5.40
2023-01-27T08:03:01.785Z,5.50
2023-01-27T08:05:32.951Z,5.50
2023-01-27T08:08:03.929Z,5.50
2023-01-27T08:10:32.101Z,5.40
2023-01-27T08:12:59.706Z,5.40
2023-01-27T08:15:27.250Z,5.40
2023-01-27T08:17:56.026Z,5.40
2023-01-27T08:20:26.438Z,5.40
2023-01-27T08:22:55.032Z,5.40
2023-01-27T08:25:23.448Z,5.40
2023-01-27T08:27:52.204Z,5.40
2023-01-27T08:34:50.553Z,5.40
2023-01-27T08:37:18.240Z,5.40
2023-01-27T08:39:45.865Z,5.50
2023-01-27T08:42:13.811Z,5.50
2023-01-27T08:44:41.244Z,5.40
2023-01-27T08:47:08.611Z,5.50
2023-01-27T08:49:36.161Z,5.50
2023-01-27T08:52:03.851Z,5.50
2023-01-27T08:54:31.164Z,5.50
2023-01-27T08:56:58.738Z,5.60
2023-01-27T08:59:26.381Z,5.60
2023-01-27T09:01:53.857Z,5.60
2023-01-27T09:04:22.801Z,5.60
2023-01-27T09:06:50.513Z,5.60
2023-01-27T09:09:18.151Z,5.60
2023-01-27T09:11:45.698Z,5.60
2023-01-27T09:14:13.869Z,5.60
2023-01-27T09:16:41.552Z,5.70
2023-01-27T09:19:09.210Z,5.70
2023-01-27T09:21:36.807Z,5.70
2023-01-27T09:24:04.430Z,5.80
2023-01-27T09:26:31.855Z,5.90
2023-01-27T09:28:59.264Z,5.90
2023-01-27T09:31:27.406Z,5.90
2023-01-27T09:33:56.267Z,6.00
2023-01-27T09:36:24.047Z,6.00
2023-01-27T09:39:01.662Z,6.00
2023-01-27T09:41:35.460Z,6.10
2023-01-27T09:44:28.018Z,6.10
2023-01-27T09:47:07.796Z,6.10
2023-01-27T09:50:04.549Z,6.10
2023-01-27T09:53:06.412Z,6.20
2023-01-27T09:55:58.749Z,6.30
2023-01-27T09:58:37.007Z,6.30
2023-01-27T10:01:55.155Z,6.30
2023-01-27T10:04:49.751Z,6.30
2023-01-27T10:07:35.753Z,6.40
2023-01-27T10:10:18.903Z,6.50
2023-01-27T10:12:46.498Z,6.50
2023-01-27T10:15:43.755Z,6.50
2023-01-27T10:18:48.447Z,6.50
2023-01-27T10:21:28.203Z,6.60
2023-01-27T10:24:20.767Z,6.60
2023-01-27T10:26:51.902Z,6.60
2023-01-27T10:29:25.860Z,6.80
2023-01-27T10:32:10.191Z,6.80
2023-01-27T10:35:04.259Z,6.80
2023-01-27T10:37:56.046Z,6.80
2023-01-27T10:40:35.614Z,6.90
2023-01-27T10:43:38.173Z,7.00
2023-01-27T10:46:28.700Z,7.00
2023-01-27T10:49:04.637Z,6.90
2023-01-27T10:51:32.095Z,6.90
2023-01-27T10:54:29.565Z,7.00
2023-01-27T10:57:08.196Z,7.00
2023-01-27T11:00:17.380Z,7.10
2023-01-27T11:02:42.946Z,7.10
2023-01-27T11:05:16.660Z,7.10
2023-01-27T11:07:51.347Z,7.10
2023-01-27T11:10:20.546Z,7.10
2023-01-27T11:12:52.196Z,7.20
2023-01-27T11:15:30.655Z,7.20
2023-01-27T11:18:10.144Z,7.20
2023-01-27T11:20:42.190Z,7.20
2023-01-27T11:23:17.856Z,7.30
2023-01-27T11:25:57.985Z,7.30
2023-01-27T11:28:59.501Z,7.30
2023-01-27T11:31:50.174Z,7.40
2023-01-27T11:34:28.107Z,7.40
2023-01-27T11:36:55.596Z,7.40
2023-01-27T11:39:23.400Z,7.50
2023-01-27T11:41:56.152Z,7.50
2023-01-27T11:44:32.299Z,7.60
2023-01-27T11:47:00.002Z,7.60
2023-01-27T11:49:42.692Z,7.50
2023-01-27T11:52:14.057Z,7.50
2023-01-27T11:55:05.364Z,7.50
2023-01-27T11:57:33.590Z,7.60
2023-01-27T12:00:08.051Z,7.60
2023-01-27T12:02:53.143Z,7.60
2023-01-27T12:05:27.243Z,7.60
2023-01-27T12:07:57.386Z,7.50
2023-01-27T12:10:24.848Z,7.50
2023-01-27T12:12:53.336Z,7.50
2023-01-27T12:15:20.853Z,7.50
2023-01-27T12:17:52.638Z,7.50
2023-01-27T12:20:32.637Z,7.50
2023-01-27T12:23:18.905Z,7.50
2023-01-27T12:25:58.976Z,7.60
2023-01-27T12:28:26.392Z,7.50
2023-01-27T12:30:57.329Z,7.60
2023-01-27T12:33:29.945Z,7.60
2023-01-27T12:36:06.677Z,7.60
2023-01-27T12:38:36.845Z,7.60
2023-01-27T12:45:38.246Z,7.70
2023-01-27T12:48:16.071Z,7.80
2023-01-27T12:50:55.293Z,7.70
2023-01-27T12:53:30.396Z,7.70
2023-01-27T12:55:57.743Z,7.70
2023-01-27T12:58:28.177Z,7.70
2023-01-27T13:00:57.607Z,7.70
2023-01-27T13:03:25.598Z,7.70
2023-01-27T13:10:27.795Z,7.70
2023-01-27T13:12:58.645Z,7.70
2023-01-27T13:15:28.701Z,7.70
2023-01-27T13:17:58.000Z,7.70
2023-01-27T13:20:47.080Z,7.70
2023-01-27T13:23:28.443Z,7.70
2023-01-27T13:26:08.944Z,7.80
2023-01-27T13:29:24.901Z,7.70
2023-01-27T13:32:09.450Z,7.80
2023-01-27T13:35:10.678Z,7.80
2023-01-27T13:37:44.041Z,7.70
2023-01-27T13:40:15.091Z,7.70
2023-01-27T13:42:59.694Z,7.70
2023-01-27T13:45:37.396Z,7.70
2023-01-27T13:48:22.955Z,7.80
2023-01-27T13:51:01.032Z,7.70
2023-01-27T13:53:28.846Z,7.70
2023-01-27T13:56:11.292Z,7.70
2023-01-27T13:58:58.394Z,7.70
2023-01-27T14:01:44.492Z,7.70
2023-01-27T14:04:21.460Z,7.70
2023-01-27T14:07:10.180Z,7.60
2023-01-27T14:09:49.646Z,7.60
2023-01-27T14:12:41.888Z,7.70
2023-01-27T14:15:25.893Z,7.70
2023-01-27T14:17:57.805Z,7.70
2023-01-27T14:20:57.743Z,7.70
2023-01-27T14:23:44.892Z,7.70
2023-01-27T14:26:49.609Z,7.70
2023-01-27T14:29:28.790Z,7.60
2023-01-27T14:32:19.136Z,7.60
2023-01-27T14:34:59.790Z,7.60
2023-01-27T14:37:42.141Z,7.50
2023-01-27T14:40:24.303Z,7.50
2023-01-27T14:43:16.400Z,7.50
2023-01-27T14:46:21.860Z,7.50
2023-01-27T14:49:08.325Z,7.60
2023-01-27T14:51:50.722Z,7.60
2023-01-27T14:54:24.295Z,7.60
2023-01-27T14:57:16.868Z,7.60
2023-01-27T14:59:50.357Z,7.60
2023-01-27T15:02:45.336Z,7.60
2023-01-27T15:05:24.964Z,7.60
2023-01-27T15:08:00.384Z,7.50
2023-01-27T15:10:30.889Z,7.50
2023-01-27T15:13:07.335Z,7.50
2023-01-27T15:15:45.632Z,7.40
2023-01-27T15:18:19.492Z,7.50
2023-01-27T15:20:56.124Z,7.50
2023-01-27T15:23:47.525Z,7.50
2023-01-27T15:26:21.236Z,7.50
2023-01-27T15:28:49.046Z,7.50
2023-01-27T15:31:19.651Z,7.50
2023-01-27T15:33:50.593Z,7.50
2023-01-27T15:36:23.887Z,7.50
2023-01-27T15:38:59.997Z,7.40
2023-01-27T15:41:27.673Z,7.40
2023-01-27T15:44:14.393Z,7.40
2023-01-27T15:46:48.289Z,7.30
2023-01-27T15:49:23.035Z,7.30
2023-01-27T15:51:53.492Z,7.30
2023-01-27T15:54:34.957Z,7.30
2023-01-27T15:57:05.895Z,7.30
2023-01-27T15:59:58.328Z,7.30
2023-01-27T16:02:29.933Z,7.40
2023-01-27T16:05:17.798Z,7.60
2023-01-27T16:12:27.067Z,7.60
2023-01-27T16:15:16.002Z,7.70
2023-01-27T16:18:08.196Z,7.70
2023-01-27T16:20:57.529Z,7.60
2023-01-27T16:23:25.179Z,7.40
2023-01-27T16:26:03.684Z,7.30
2023-01-27T16:28:32.742Z,7.30
2023-01-27T16:31:05.846Z,7.20
2023-01-27T16:33:45.936Z,7.10
2023-01-27T16:36:34.753Z,7.00
2023-01-27T16:39:45.179Z,7.00
2023-01-27T16:42:17.039Z,6.90
2023-01-27T16:44:49.935Z,6.80
2023-01-27T16:47:28.539Z,6.90
2023-01-27T16:49:56.642Z,6.80
2023-01-27T16:52:41.822Z,6.80
2023-01-27T16:55:22.041Z,6.80
2023-01-27T16:57:51.588Z,6.70
2023-01-27T17:00:23.070Z,6.60
2023-01-27T17:02:53.104Z,6.60
2023-01-27T17:05:21.140Z,6.60
2023-01-27T17:08:14.245Z,6.50
2023-01-27T17:10:55.901Z,6.60
2023-01-27T17:13:33.843Z,6.70
2023-01-27T17:16:04.687Z,6.70
2023-01-27T17:18:51.879Z,6.70
2023-01-27T17:21:32.125Z,6.60
2023-01-27T17:24:04.538Z,6.50
2023-01-27T17:26:33.359Z,6.40
2023-01-27T17:29:01.033Z,6.40
2023-01-27T17:31:29.119Z,6.30
2023-01-27T17:34:01.948Z,6.40
2023-01-27T17:36:29.447Z,6.40
2023-01-27T17:38:57.493Z,6.40
2023-01-27T17:41:24.991Z,6.30
2023-01-27T17:43:55.999Z,6.20
2023-01-27T17:46:29.150Z,6.20
2023-01-27T17:49:05.330Z,6.10
2023-01-27T17:51:40.801Z,6.10
2023-01-27T17:54:33.847Z,6.00
2023-01-27T17:57:15.989Z,6.00
2023-01-27T18:00:26.742Z,6.00
2023-01-27T18:02:57.050Z,6.00
2023-01-27T18:05:28.977Z,6.00
2023-01-27T18:07:56.523Z,5.90
2023-01-27T18:10:35.609Z,5.90
2023-01-27T18:13:18.052Z,5.90
2023-01-27T18:15:49.976Z,5.80
2023-01-27T18:18:26.560Z,5.80
2023-01-27T18:21:00.118Z,5.80
2023-01-27T18:23:30.991Z,5.90
2023-01-27T18:26:27.252Z,5.80
2023-01-27T18:29:20.144Z,5.80
2023-01-27T18:31:54.968Z,5.80
2023-01-27T18:34:34.381Z,5.70
2023-01-27T18:37:08.642Z,5.70
2023-01-27T18:39:41.183Z,5.70
2023-01-27T18:42:16.693Z,5.70
2023-01-27T18:44:44.585Z,5.60
2023-01-27T18:47:18.096Z,5.50
2023-01-27T18:49:56.485Z,5.60
2023-01-27T18:52:24.132Z,5.60
2023-01-27T18:55:15.930Z,5.60
2023-01-27T18:57:45.686Z,5.60
2023-01-27T19:00:19.993Z,5.70
2023-01-27T19:02:50.981Z,5.70
2023-01-27T19:05:28.105Z,5.60
2023-01-27T19:07:55.867Z,5.60
2023-01-27T19:10:28.275Z,5.50
2023-01-27T19:12:58.625Z,5.50
2023-01-27T19:15:28.439Z,5.40
2023-01-27T19:17:58.624Z,5.40
2023-01-27T19:20:28.984Z,5.40
2023-01-27T19:22:57.945Z,5.50
2023-01-27T19:25:28.979Z,5.50
2023-01-27T19:27:57.581Z,5.50
2023-01-27T19:30:36.260Z,5.40
2023-01-27T19:33:17.734Z,5.40
2023-01-27T19:36:11.227Z,5.40
2023-01-27T19:38:38.809Z,5.40
2023-01-27T19:41:06.071Z,5.50
2023-01-27T19:43:33.430Z,5.40
2023-01-27T19:46:01.213Z,5.40
2023-01-27T19:48:28.822Z,5.40
2023-01-27T19:50:56.480Z,5.30
2023-01-27T19:53:24.633Z,5.30
2023-01-27T19:55:54.306Z,5.30
2023-01-27T19:58:27.786Z,5.40
2023-01-27T20:00:56.288Z,5.40
2023-01-27T20:03:24.561Z,5.30
2023-01-27T20:05:52.477Z,5.30
2023-01-27T20:08:21.441Z,5.20
2023-01-27T20:10:49.077Z,5.30
2023-01-27T20:13:18.631Z,5.30
2023-01-27T20:15:47.015Z,5.30
2023-01-27T20:18:16.574Z,5.20
2023-01-27T20:20:44.977Z,5.10
2023-01-27T20:23:13.925Z,5.10
2023-01-27T20:25:41.333Z,5.10
2023-01-27T20:28:09.717Z,5.00
2023-01-27T20:30:37.376Z,5.00
2023-01-27T20:33:05.933Z,5.10
2023-01-27T20:35:33.521Z,5.10
2023-01-27T20:38:02.698Z,5.00
2023-01-27T20:40:30.993Z,5.00
2023-01-27T20:43:00.844Z,4.90
2023-01-27T20:45:28.475Z,4.90
2023-01-27T20:47:56.182Z,4.90
2023-01-27T20:50:26.057Z,4.90
2023-01-27T20:52:53.979Z,4.90
2023-01-27T20:55:21.778Z,4.80
2023-01-27T20:57:49.722Z,4.80
2023-01-27T21:00:21.639Z,4.80
2023-01-27T21:02:50.177Z,4.70
2023-01-27T21:05:17.916Z,4.70
2023-01-27T21:07:45.380Z,4.70
2023-01-27T21:10:12.767Z,4.60
2023-01-27T21:12:40.419Z,4.60
2023-01-27T21:15:09.914Z,4.60
2023-01-27T21:17:37.531Z,4.50
2023-01-27T21:20:06.278Z,4.50
2023-01-27T21:22:34.624Z,4.50
2023-01-27T21:25:02.250Z,4.50
2023-01-27T21:27:29.832Z,4.50
2023-01-27T21:29:57.299Z,4.50
2023-01-27T21:32:26.320Z,4.40
2023-01-27T21:34:53.928Z,4.40
2023-01-27T21:37:21.280Z,4.40
2023-01-27T21:39:48.571Z,4.40
2023-01-27T21:42:18.654Z,4.30
2023-01-27T21:45:04.757Z,4.30
2023-01-27T21:47:32.228Z,4.30
2023-01-27T21:50:02.952Z,4.30
2023-01-27T21:52:35.048Z,4.30
2023-01-27T21:55:07.425Z,4.30
2023-01-27T21:57:35.403Z,4.30
2023-01-27T22:00:05.296Z,4.40
2023-01-27T22:02:32.814Z,4.30
2023-01-27T22:05:00.232Z,4.30
2023-01-27T22:07:30.559Z,4.30
2023-01-27T22:09:57.868Z,4.30
2023-01-27T22:12:25.329Z,4.30
2023-01-27T22:14:52.915Z,4.40
2023-01-27T22:17:20.210Z,4.40
2023-01-27T22:19:47.583Z,4.40
2023-01-27T22:22:15.125Z,4.40
2023-01-27T22:24:42.524Z,4.40
2023-01-27T22:27:10.012Z,4.40
2023-01-27T22:29:37.470Z,4.40
2023-01-27T22:32:04.970Z,4.40
2023-01-27T22:34:32.611Z,4.40
2023-01-27T22:37:00.816Z,4.40
2023-01-27T22:39:28.261Z,4.40
2023-01-27T22:41:56.314Z,4.40
2023-01-27T22:44:23.677Z,4.40
2023-01-27T22:46:52.574Z,4.40
2023-01-27T22:49:20.226Z,4.40
2023-01-27T22:51:48.871Z,4.50
2023-01-27T22:54:16.419Z,4.50
2023-01-27T22:56:43.838Z,4.40
2023-01-27T22:59:15.502Z,4.40
2023-01-27T23:01:42.824Z,4.50
2023-01-27T23:04:14.275Z,4.40
2023-01-27T23:11:06.783Z,4.40
2023-01-27T23:13:35.730Z,4.30
2023-01-27T23:16:04.124Z,4.30
2023-01-27T23:18:32.160Z,4.40
2023-01-27T23:21:04.473Z,4.40
2023-01-27T23:23:32.133Z,4.40
2023-01-27T23:26:02.311Z,4.50
2023-01-27T23:28:29.665Z,4.60
2023-01-27T23:30:57.084Z,4.60
2023-01-27T23:33:26.621Z,4.60
2023-01-27T23:35:57.929Z,4.60
2023-01-27T23:38:32.577Z,4.70
2023-01-27T23:41:05.298Z,4.70
2023-01-27T23:43:32.694Z,4.70
2023-01-27T23:46:00.720Z,4.70
2023-01-27T23:48:28.565Z,4.70
2023-01-27T23:50:56.535Z,4.70
2023-01-27T23:53:24.203Z,4.70
2023-01-27T23:55:59.628Z,4.70
2023-01-27T23:58:27.927Z,4.70
